Time;durP1;ratioP1;P1;durP2;ratioP2;P2;SDS_P1;SDS_P2;PMS_P1;PMS_P2;Temp;Humidity;BMP_temperature;BMP_pressure;BME280_temperature;BME280_humidity;BME280_pressure;Samples;Min_cycle;Max_cycle;Signal;HPM_P1;HPM_P2
2021/01/28 00:01:50;;;;;;;;;;;;;;;4.32;100.00;100187.94;5022655;28;19925;-68
2021/01/28 00:04:15;;;;;;;;;;;;;;;4.36;100.00;100197.53;5016829;28;19919;-67
2021/01/28 00:06:40;;;;;;;;;;;;;;;4.41;100.00;100195.88;5021892;28;19920;-67
2021/01/28 00:09:06;;;;;;;;;;;;;;;4.37;100.00;100198.41;5011002;28;19935;-68
2021/01/28 00:11:31;;;;;;;;;;;;;;;4.36;100.00;100196.63;5016319;28;19913;-67
2021/01/28 00:13:57;;;;;;;;;;;;;;;4.32;100.00;100200.03;5016659;28;19913;-68
2021/01/28 00:16:22;;;;;;;;;;;;;;;4.37;100.00;100194.09;5021241;28;19921;-68
2021/01/28 00:18:47;;;;;;;;;;;;;;;4.30;100.00;100188.78;5013222;28;19913;-68
2021/01/28 00:21:13;;;;;;;;;;;;;;;4.29;100.00;100187.03;5024599;28;19924;-68
2021/01/28 00:23:38;;;;;;;;;;;;;;;4.14;100.00;100192.78;5026078;28;20311;-68
2021/01/28 00:26:03;;;;;;;;;;;;;;;4.20;100.00;100192.91;5012534;28;19956;-67
2021/01/28 00:28:29;;;;;;;;;;;;;;;4.26;100.00;100189.56;5019346;28;19920;-67
2021/01/28 00:30:54;;;;;;;;;;;;;;;4.29;100.00;100194.78;5020566;28;19920;-68
2021/01/28 00:33:21;;;;;;;;;;;;;;;4.14;100.00;100179.00;5025544;28;19913;-68
2021/01/28 00:35:48;;;;;;;;;;;;;;;4.05;100.00;100185.72;5021844;28;19921;-68
2021/01/28 00:38:18;;;;;;;;;;;;;;;4.11;100.00;100188.41;5019455;28;19913;-68
2021/01/28 00:40:44;;;;;;;;;;;;;;;3.88;100.00;100184.53;5023337;28;20411;-68
2021/01/28 00:43:09;;;;;;;;;;;;;;;3.74;100.00;100183.34;5014129;28;19921;-68
2021/01/28 00:45:35;;;;;;;;;;;;;;;3.82;100.00;100184.41;5016621;28;20339;-68
2021/01/28 00:48:01;;;;;;;;;;;;;;;3.84;100.00;100180.13;5015705;28;20360;-68
2021/01/28 00:50:28;;;;;;;;;;;;;;;3.75;100.00;100180.81;5022695;28;19923;-67
2021/01/28 00:52:53;;;;;;;;;;;;;;;3.62;100.00;100178.81;5024852;28;19917;-68
2021/01/28 00:55:20;;;;;;;;;;;;;;;3.67;100.00;100181.50;5017472;28;19920;-68
2021/01/28 00:57:45;;;;;;;;;;;;;;;3.61;100.00;100191.69;5025314;28;20189;-67
2021/01/28 01:00:11;;;;;;;;;;;;;;;3.67;100.00;100197.03;5027885;28;20012;-68
2021/01/28 01:02:37;;;;;;;;;;;;;;;3.68;100.00;100193.59;5029671;28;19916;-68
2021/01/28 01:05:02;;;;;;;;;;;;;;;3.73;100.00;100192.81;5027216;28;19917;-68
2021/01/28 01:07:27;;;;;;;;;;;;;;;3.86;100.00;100191.38;5024629;28;20426;-68
2021/01/28 01:09:53;;;;;;;;;;;;;;;3.95;100.00;100194.16;5013734;28;20001;-68
2021/01/28 01:12:18;;;;;;;;;;;;;;;4.03;100.00;100192.59;5020714;28;20368;-69
2021/01/28 01:14:43;;;;;;;;;;;;;;;4.05;100.00;100188.31;5018081;28;19913;-68
2021/01/28 01:17:08;;;;;;;;;;;;;;;3.99;100.00;100195.94;5014988;28;19913;-68
2021/01/28 01:19:34;;;;;;;;;;;;;;;3.97;100.00;100187.28;5016621;28;19932;-68
2021/01/28 01:21:59;;;;;;;;;;;;;;;3.94;100.00;100192.41;5031128;28;19920;-67
2021/01/28 01:24:24;;;;;;;;;;;;;;;3.83;100.00;100186.13;5020746;28;19913;-67
2021/01/28 01:26:50;;;;;;;;;;;;;;;3.70;100.00;100182.44;5013287;28;19913;-67
2021/01/28 01:29:15;;;;;;;;;;;;;;;3.58;100.00;100179.59;5023584;28;19913;-67
2021/01/28 01:31:40;;;;;;;;;;;;;;;3.52;100.00;100175.19;5013029;28;19963;-67
2021/01/28 01:34:05;;;;;;;;;;;;;;;3.55;100.00;100181.25;5020495;28;19917;-68
2021/01/28 01:36:31;;;;;;;;;;;;;;;3.58;100.00;100179.59;5026351;28;19920;-68
2021/01/28 01:38:56;;;;;;;;;;;;;;;3.61;100.00;100183.94;5029161;28;19913;-67
2021/01/28 01:41:27;;;;;;;;;;;;;;;3.66;100.00;100184.94;5028313;28;19921;-68
2021/01/28 01:44:01;;;;;;;;;;;;;;;3.64;100.00;100177.16;5028133;28;20327;-67
2021/01/28 01:46:27;;;;;;;;;;;;;;;3.69;100.00;100172.06;5014288;28;19913;-69
2021/01/28 01:48:56;;;;;;;;;;;;;;;3.71;100.00;100172.97;5015064;28;19918;-68
2021/01/28 01:51:24;;;;;;;;;;;;;;;3.70;100.00;100172.09;5025120;28;21195;-68
2021/01/28 01:54:10;;;;;;;;;;;;;;;3.78;100.00;100164.50;5019882;28;19920;-68
2021/01/28 01:56:39;;;;;;;;;;;;;;;3.78;100.00;100164.50;5019276;28;20003;-69
2021/01/28 01:59:14;;;;;;;;;;;;;;;3.78;100.00;100159.31;5027747;28;19917;-67
2021/01/28 02:01:41;;;;;;;;;;;;;;;3.77;100.00;100162.75;5013336;28;19920;-68
2021/01/28 02:04:07;;;;;;;;;;;;;;;3.77;100.00;100157.59;5027450;28;19913;-68
2021/01/28 02:06:41;;;;;;;;;;;;;;;3.72;100.00;100154.03;5030702;28;19917;-68
2021/01/28 02:09:08;;;;;;;;;;;;;;;3.71;100.00;100150.56;5013606;28;20364;-67
2021/01/28 02:11:34;;;;;;;;;;;;;;;3.65;100.00;100147.88;5015922;28;20011;-68
2021/01/28 02:14:00;;;;;;;;;;;;;;;3.62;100.00;100145.19;5025858;28;19917;-69
2021/01/28 02:16:27;;;;;;;;;;;;;;;3.62;100.00;100147.78;5023468;28;19917;-68
2021/01/28 02:18:54;;;;;;;;;;;;;;;3.57;100.00;100140.78;5016856;28;20003;-69
2021/01/28 02:21:29;;;;;;;;;;;;;;;3.49;100.00;100146.66;5026822;28;20065;-68
2021/01/28 02:24:02;;;;;;;;;;;;;;;3.43;100.00;100136.22;5026892;28;20028;-68
2021/01/28 02:26:29;;;;;;;;;;;;;;;3.39;100.00;100138.69;5020900;28;19920;-68
2021/01/28 02:28:54;;;;;;;;;;;;;;;3.43;100.00;100136.22;5024512;28;19912;-68
2021/01/28 02:31:20;;;;;;;;;;;;;;;3.47;100.00;100138.00;5028612;28;19935;-69
2021/01/28 02:33:53;;;;;;;;;;;;;;;3.47;100.00;100135.41;5015860;28;19968;-68
2021/01/28 02:36:18;;;;;;;;;;;;;;;3.47;100.00;100138.00;5013445;28;20404;-67
2021/01/28 02:38:44;;;;;;;;;;;;;;;3.50;100.00;100137.19;5030105;28;19917;-68
2021/01/28 02:41:10;;;;;;;;;;;;;;;3.57;100.00;100138.22;5030676;28;19935;-68
2021/01/28 02:43:35;;;;;;;;;;;;;;;3.56;100.00;100136.47;5023369;28;20187;-68
2021/01/28 02:46:03;;;;;;;;;;;;;;;3.61;100.00;100127.06;5025350;28;19920;-68
2021/01/28 02:48:28;;;;;;;;;;;;;;;3.66;100.00;100140.97;5020471;28;20328;-68
2021/01/28 02:50:53;;;;;;;;;;;;;;;3.63;100.00;100128.84;5012933;28;19913;-68
2021/01/28 02:53:18;;;;;;;;;;;;;;;3.72;100.00;100121.28;5015376;28;19913;-68
2021/01/28 02:55:44;;;;;;;;;;;;;;;3.64;100.00;100129.75;5019838;28;19913;-69
2021/01/28 02:58:09;;;;;;;;;;;;;;;3.62;100.00;100126.22;5018805;28;19913;-69
2021/01/28 03:00:35;;;;;;;;;;;;;;;3.60;100.00;100125.34;5017585;28;20491;-68
2021/01/28 03:03:03;;;;;;;;;;;;;;;3.59;100.00;100115.84;5016247;28;20394;-68
2021/01/28 03:05:28;;;;;;;;;;;;;;;3.53;100.00;100114.88;5016999;28;19976;-68
2021/01/28 03:07:54;;;;;;;;;;;;;;;3.50;100.00;100117.38;5019158;28;20521;-69
2021/01/28 03:10:20;;;;;;;;;;;;;;;3.48;100.00;100121.66;5011455;28;19917;-68
2021/01/28 03:12:46;;;;;;;;;;;;;;;3.48;100.00;100119.06;5017047;28;20272;-67
2021/01/28 03:15:12;;;;;;;;;;;;;;;3.49;100.00;100120.81;5015220;28;19913;-69
2021/01/28 03:17:38;;;;;;;;;;;;;;;3.47;100.00;100116.47;5029050;28;20427;-68
2021/01/28 03:20:07;;;;;;;;;;;;;;;3.37;100.00;100120.56;5022521;28;20004;-68
2021/01/28 03:22:32;;;;;;;;;;;;;;;3.31;100.00;100115.28;5019120;28;19909;-68
2021/01/28 03:24:58;;;;;;;;;;;;;;;3.22;100.00;100112.50;5013051;28;19920;-68
2021/01/28 03:27:23;;;;;;;;;;;;;;;3.13;100.00;100120.91;5014842;28;19920;-68
2021/01/28 03:29:48;;;;;;;;;;;;;;;3.04;100.00;100115.56;5016748;28;19917;-68
2021/01/28 03:32:13;;;;;;;;;;;;;;;3.05;100.00;100112.13;5011429;28;20281;-68
2021/01/28 03:34:39;;;;;;;;;;;;;;;3.00;100.00;100110.28;5018230;28;19913;-68
2021/01/28 03:37:04;;;;;;;;;;;;;;;2.75;100.00;100099.41;5028771;28;20436;-68
2021/01/28 03:39:29;;;;;;;;;;;;;;;2.61;100.00;100098.22;5020227;28;19920;-68
2021/01/28 03:41:54;;;;;;;;;;;;;;;2.62;100.00;100100.81;5023602;28;19979;-68
2021/01/28 03:44:20;;;;;;;;;;;;;;;2.41;100.00;100086.53;5028176;28;19963;-69
2021/01/28 03:46:45;;;;;;;;;;;;;;;2.23;100.00;100090.41;5017851;28;19916;-68
2021/01/28 03:49:10;;;;;;;;;;;;;;;2.08;100.00;100084.88;5018921;28;19921;-68
2021/01/28 03:51:35;;;;;;;;;;;;;;;1.91;100.00;100091.28;5013408;28;19913;-68
2021/01/28 03:54:01;;;;;;;;;;;;;;;1.81;100.00;100095.31;5027942;28;19920;-68
2021/01/28 03:56:26;;;;;;;;;;;;;;;1.62;100.00;100083.66;5019988;28;20588;-68
2021/01/28 03:58:51;;;;;;;;;;;;;;;1.54;100.00;100079.13;5026461;28;20238;-68
2021/01/28 04:01:17;;;;;;;;;;;;;;;1.81;100.00;100086.72;5023193;28;20012;-66
2021/01/28 04:03:42;;;;;;;;;;;;;;;1.71;100.00;100083.91;5027811;28;19917;-66
2021/01/28 04:06:07;;;;;;;;;;;;;;;1.48;100.00;100078.97;5024020;28;19932;-66
2021/01/28 04:08:32;;;;;;;;;;;;;;;1.40;100.00;100066.75;5024300;28;20376;-66
2021/01/28 04:10:58;;;;;;;;;;;;;;;1.34;100.00;100073.44;5024273;28;20400;-66
2021/01/28 04:13:23;;;;;;;;;;;;;;;1.17;100.00;100066.09;5029348;28;20005;-66
2021/01/28 04:15:48;;;;;;;;;;;;;;;1.15;100.00;100072.03;5032000;28;19913;-66
2021/01/28 04:18:16;;;;;;;;;;;;;;;1.17;100.00;100080.66;5030959;28;19921;-66
2021/01/28 04:20:42;;;;;;;;;;;;;;;1.16;100.00;100068.63;5014368;28;19921;-66
2021/01/28 04:23:07;;;;;;;;;;;;;;;1.20;100.00;100056.69;5016748;28;19909;-66
2021/01/28 04:25:32;;;;;;;;;;;;;;;1.26;100.00;100047.47;5027248;28;19951;-69
2021/01/28 04:27:57;;;;;;;;;;;;;;;1.29;100.00;100046.66;5015023;28;20419;-66
2021/01/28 04:30:25;;;;;;;;;;;;;;;1.40;100.00;100042.69;5026208;28;19913;-66
2021/01/28 04:32:50;;;;;;;;;;;;;;;1.52;100.00;100040.44;5018554;28;20412;-66
2021/01/28 04:35:16;;;;;;;;;;;;;;;1.57;100.00;100046.56;5015767;28;20060;-67
2021/01/28 04:37:41;;;;;;;;;;;;;;;1.58;100.00;100045.78;5022528;28;19924;-66
2021/01/28 04:40:25;;;;;;;;;;;;;;;1.59;100.00;100036.34;5032199;28;19962;-74
2021/01/28 04:42:51;;;;;;;;;;;;;;;1.58;100.00;100020.00;5027631;28;19913;-68
2021/01/28 04:45:28;;;;;;;;;;;;;;;1.58;100.00;100009.72;5025956;28;19920;-70
2021/01/28 04:47:56;;;;;;;;;;;;;;;1.63;100.00;100018.41;5029735;28;19920;-67
2021/01/28 04:50:25;;;;;;;;;;;;;;;1.57;100.00;100018.22;5028098;28;19936;-67
2021/01/28 04:52:52;;;;;;;;;;;;;;;1.56;100.00;100006.19;5022521;28;20392;-67
2021/01/28 04:55:20;;;;;;;;;;;;;;;1.64;100.00;99999.53;5030015;28;19914;-67
2021/01/28 04:57:45;;;;;;;;;;;;;;;1.69;100.00;100002.22;5032469;28;19909;-68
2021/01/28 05:00:10;;;;;;;;;;;;;;;1.63;100.00;99997.81;5025574;28;19927;-67
2021/01/28 05:02:36;;;;;;;;;;;;;;;1.57;100.00;99996.75;5032156;28;19913;-66
2021/01/28 05:05:03;;;;;;;;;;;;;;;1.45;100.00;100007.59;5021632;28;19960;-68
2021/01/28 05:07:30;;;;;;;;;;;;;;;1.41;100.00;99996.34;5015023;28;19960;-67
2021/01/28 05:10:01;;;;;;;;;;;;;;;1.38;100.00;100000.56;5020733;28;20384;-67
2021/01/28 05:12:26;;;;;;;;;;;;;;;1.44;100.00;100003.28;5013904;28;20372;-67
2021/01/28 05:14:51;;;;;;;;;;;;;;;1.46;100.00;100004.22;5024520;28;20107;-67
2021/01/28 05:17:19;;;;;;;;;;;;;;;1.39;100.00;100004.88;5026812;28;19913;-67
2021/01/28 05:19:46;;;;;;;;;;;;;;;1.48;100.00;100017.16;5020433;28;19913;-67
2021/01/28 05:22:28;;;;;;;;;;;;;;;1.44;100.00;100018.75;5023794;28;19991;-68
2021/01/28 05:25:13;;;;;;;;;;;;;;;1.43;100.00;100014.44;5026282;28;19913;-67
2021/01/28 05:27:39;;;;;;;;;;;;;;;1.51;100.00;100017.22;5025807;28;19976;-67
2021/01/28 05:30:07;;;;;;;;;;;;;;;1.40;100.00;100011.78;5023464;28;19917;-67
2021/01/28 05:32:35;;;;;;;;;;;;;;;1.45;100.00;100013.66;5028623;28;19963;-67
2021/01/28 05:35:19;;;;;;;;;;;;;;;1.54;100.00;100002.72;5023325;28;19913;-68
2021/01/28 05:37:45;;;;;;;;;;;;;;;1.67;100.00;99989.31;5031781;28;19917;-67
2021/01/28 05:40:22;;;;;;;;;;;;;;;1.69;100.00;99976.47;5026460;28;19924;-67
2021/01/28 05:42:48;;;;;;;;;;;;;;;1.68;100.00;99973.00;5019893;28;19913;-67
2021/01/28 05:45:22;;;;;;;;;;;;;;;1.66;100.00;99956.66;5020847;28;20004;-67
2021/01/28 05:47:48;;;;;;;;;;;;;;;1.67;100.00;99960.09;5026756;28;19963;-67
2021/01/28 05:50:21;;;;;;;;;;;;;;;1.69;100.00;99950.69;5026002;28;20023;-67
2021/01/28 05:52:46;;;;;;;;;;;;;;;1.72;100.00;99945.63;5024523;28;19913;-67
2021/01/28 05:55:16;;;;;;;;;;;;;;;1.77;100.00;99954.34;5032221;28;19971;-67
2021/01/28 05:57:47;;;;;;;;;;;;;;;1.71;100.00;99938.75;5029509;28;20323;-66
2021/01/28 06:00:13;;;;;;;;;;;;;;;1.75;100.00;99941.41;5014446;28;19964;-66
2021/01/28 06:02:57;;;;;;;;;;;;;;;1.71;100.00;99947.34;5030840;28;19952;-66
2021/01/28 06:05:22;;;;;;;;;;;;;;;1.68;100.00;99947.25;5024123;28;20388;-66
2021/01/28 06:07:50;;;;;;;;;;;;;;;1.64;100.00;99940.28;5028626;28;19948;-66
2021/01/28 06:10:23;;;;;;;;;;;;;;;1.64;100.00;99937.69;5028129;28;20391;-66
2021/01/28 06:13:06;;;;;;;;;;;;;;;1.62;100.00;99938.50;5025886;28;19913;-66
2021/01/28 06:15:31;;;;;;;;;;;;;;;1.56;100.00;99933.19;5027323;28;19913;-66
2021/01/28 06:18:15;;;;;;;;;;;;;;;1.51;100.00;99917.63;5028332;28;19937;-66
2021/01/28 06:20:53;;;;;;;;;;;;;;;1.46;100.00;99912.38;5028294;28;19917;-66
2021/01/28 06:23:21;;;;;;;;;;;;;;;1.45;100.00;99912.31;5022034;28;19913;-66
2021/01/28 06:26:01;;;;;;;;;;;;;;;1.48;100.00;99909.84;5028645;28;20550;-66
2021/01/28 06:28:45;;;;;;;;;;;;;;;1.56;100.00;99907.41;5027682;28;20303;-66
2021/01/28 06:31:13;;;;;;;;;;;;;;;1.62;100.00;99905.88;5022709;28;19913;-67
2021/01/28 06:33:50;;;;;;;;;;;;;;;1.67;100.00;99900.81;5026177;28;20592;-66
2021/01/28 06:36:31;;;;;;;;;;;;;;;1.73;100.00;99901.84;5026221;28;19913;-66
2021/01/28 06:39:14;;;;;;;;;;;;;;;1.76;100.00;99901.94;5030159;28;19916;-67
2021/01/28 06:41:53;;;;;;;;;;;;;;;1.83;100.00;99896.94;5028047;28;19917;-66
2021/01/28 06:44:25;;;;;;;;;;;;;;;1.83;100.00;99891.78;5029503;28;19913;-66
2021/01/28 06:46:56;;;;;;;;;;;;;;;1.85;100.00;99895.25;5028008;28;19990;-66
2021/01/28 06:49:28;;;;;;;;;;;;;;;1.90;100.00;99893.63;5029808;28;19913;-66
2021/01/28 06:52:06;;;;;;;;;;;;;;;1.86;100.00;99886.69;5030533;28;19921;-66
2021/01/28 06:54:38;;;;;;;;;;;;;;;1.82;100.00;99882.28;5027686;28;19920;-67
2021/01/28 06:57:04;;;;;;;;;;;;;;;1.80;100.00;99883.94;5030607;28;20063;-65
2021/01/28 06:59:29;;;;;;;;;;;;;;;1.72;100.00;99879.50;5030072;28;20418;-65
2021/01/28 07:01:59;;;;;;;;;;;;;;;1.66;100.00;99869.03;5025627;28;19924;-66
2021/01/28 07:04:31;;;;;;;;;;;;;;;1.66;100.00;99868.16;5013714;28;20422;-65
2021/01/28 07:07:18;;;;;;;;;;;;;;;1.61;100.00;99883.53;5030765;28;19921;-66
2021/01/28 07:09:47;;;;;;;;;;;;;;;1.63;100.00;99888.72;5020831;28;19975;-65
2021/01/28 07:12:16;;;;;;;;;;;;;;;1.67;100.00;99877.63;5030412;28;19916;-65
2021/01/28 07:14:41;;;;;;;;;;;;;;;1.67;100.00;99883.66;5014338;28;20387;-65
2021/01/28 07:17:29;;;;;;;;;;;;;;;1.69;100.00;99884.56;5012508;28;19994;-67
2021/01/28 07:20:00;;;;;;;;;;;;;;;1.65;100.00;99877.59;5029417;28;19963;-66
2021/01/28 07:22:30;;;;;;;;;;;;;;;1.66;100.00;99871.63;5029925;28;19963;-66
2021/01/28 07:24:56;;;;;;;;;;;;;;;1.59;100.00;99867.16;5029300;28;19909;-66
2021/01/28 07:27:22;;;;;;;;;;;;;;;1.54;100.00;99858.44;5030798;28;19916;-66
2021/01/28 07:29:47;;;;;;;;;;;;;;;1.51;100.00;99853.22;5029478;28;20288;-66
2021/01/28 07:32:33;;;;;;;;;;;;;;;1.49;100.00;99847.16;5028510;28;19913;-67
2021/01/28 07:35:17;;;;;;;;;;;;;;;1.41;100.00;99840.94;5011801;28;19914;-66
2021/01/28 07:37:42;;;;;;;;;;;;;;;1.38;100.00;99835.75;5018760;28;19917;-66
2021/01/28 07:40:08;;;;;;;;;;;;;;;1.43;100.00;99847.00;5030715;28;19919;-66
2021/01/28 07:42:33;;;;;;;;;;;;;;;1.47;100.00;99846.28;5029586;28;19917;-66
2021/01/28 07:44:59;;;;;;;;;;;;;;;1.51;100.00;99844.63;5029753;28;20404;-66
2021/01/28 07:47:31;;;;;;;;;;;;;;;1.48;100.00;99842.00;5030151;28;19920;-67
2021/01/28 07:50:15;;;;;;;;;;;;;;;1.44;100.00;99830.72;5026786;28;19913;-66
2021/01/28 07:52:41;;;;;;;;;;;;;;;1.41;100.00;99826.38;5029841;28;20328;-66
2021/01/28 07:55:26;;;;;;;;;;;;;;;1.41;100.00;99828.94;5010922;28;19975;-66
2021/01/28 07:57:52;;;;;;;;;;;;;;;1.38;100.00;99826.31;5022372;28;19916;-66
2021/01/28 08:00:18;;;;;;;;;;;;;;;1.38;100.00;99826.31;5024353;28;19917;-67
2021/01/28 08:02:44;;;;;;;;;;;;;;;1.38;100.00;99835.75;5028327;28;19975;-66
2021/01/28 08:05:10;;;;;;;;;;;;;;;1.38;100.00;99835.75;5019929;28;20523;-66
2021/01/28 08:07:36;;;;;;;;;;;;;;;1.46;100.00;99823.94;5023484;28;19920;-65
2021/01/28 08:10:24;;;;;;;;;;;;;;;1.50;100.00;99830.88;5028613;28;19935;-67
2021/01/28 08:12:52;;;;;;;;;;;;;;;1.58;100.00;99824.22;5030066;28;19917;-66
2021/01/28 08:15:19;;;;;;;;;;;;;;;1.61;100.00;99813.09;5025788;28;19920;-67
2021/01/28 08:17:44;;;;;;;;;;;;;;;1.61;100.00;99811.38;5021615;28;20312;-67
2021/01/28 08:20:17;;;;;;;;;;;;;;;1.66;100.00;99809.78;5028749;28;19971;-66
2021/01/28 08:23:09;;;;;;;;;;;;;;;1.62;100.00;99815.72;5017135;28;20027;-67
2021/01/28 08:25:36;;;;;;;;;;;;;;;1.65;100.00;99805.47;5027435;28;19967;-67
2021/01/28 08:28:12;;;;;;;;;;;;;;;1.67;100.00;99801.22;5013501;28;19914;-67
2021/01/28 08:30:38;;;;;;;;;;;;;;;1.68;100.00;99797.78;5021573;28;19913;-67
2021/01/28 08:33:03;;;;;;;;;;;;;;;1.68;100.00;99789.19;5023272;28;19975;-67
2021/01/28 08:35:36;;;;;;;;;;;;;;;1.72;100.00;99789.31;5025768;28;19912;-67
2021/01/28 08:38:07;;;;;;;;;;;;;;;1.81;100.00;99780.88;5023320;28;19932;-67
2021/01/28 08:40:32;;;;;;;;;;;;;;;1.89;100.00;99778.50;5028281;28;19927;-67
2021/01/28 08:43:07;;;;;;;;;;;;;;;1.91;100.00;99776.81;5028811;28;19912;-67
2021/01/28 08:45:33;;;;;;;;;;;;;;;1.95;100.00;99770.91;5027514;28;20395;-67
2021/01/28 08:48:04;;;;;;;;;;;;;;;1.95;100.00;99773.47;5019613;28;20008;-67
2021/01/28 08:50:30;;;;;;;;;;;;;;;1.99;100.00;99760.69;5021149;28;20336;-67
2021/01/28 08:53:04;;;;;;;;;;;;;;;1.99;100.00;99760.69;5028790;28;20399;-66
2021/01/28 08:55:32;;;;;;;;;;;;;;;2.00;100.00;99751.22;5027698;28;19917;-66
2021/01/28 08:58:15;;;;;;;;;;;;;;;1.99;100.00;99760.69;5032365;28;19920;-67
2021/01/28 09:00:48;;;;;;;;;;;;;;;2.09;100.00;99751.41;5014387;28;19963;-67
2021/01/28 09:03:22;;;;;;;;;;;;;;;2.11;100.00;99747.16;5022281;28;19920;-67
2021/01/28 09:05:48;;;;;;;;;;;;;;;2.08;100.00;99744.53;5031776;28;19920;-67
2021/01/28 09:08:42;;;;;;;;;;;;;;;2.15;100.00;99740.34;5031676;28;20329;-67
2021/01/28 09:11:13;;;;;;;;;;;;;;;2.20;100.00;99739.63;5034407;28;19959;-67
2021/01/28 09:13:40;;;;;;;;;;;;;;;2.21;100.00;99741.34;5032794;28;20415;-66
2021/01/28 09:16:11;;;;;;;;;;;;;;;2.30;100.00;99736.38;5032343;28;19913;-67
2021/01/28 09:18:57;;;;;;;;;;;;;;;2.31;100.00;99743.28;5027436;28;19988;-67
2021/01/28 09:21:23;;;;;;;;;;;;;;;2.24;100.00;99736.25;5027740;28;20004;-67
2021/01/28 09:23:56;;;;;;;;;;;;;;;2.24;100.00;99741.41;5032114;28;20402;-66
2021/01/28 09:26:23;;;;;;;;;;;;;;;2.25;100.00;99737.09;5030294;28;19939;-67
2021/01/28 09:28:49;;;;;;;;;;;;;;;2.28;100.00;99726.84;5032165;28;20441;-67
2021/01/28 09:31:26;;;;;;;;;;;;;;;2.25;100.00;99737.97;5030809;28;20000;-67
2021/01/28 09:33:51;;;;;;;;;;;;;;;2.25;100.00;99735.41;5019962;28;19914;-66
2021/01/28 09:36:20;;;;;;;;;;;;;;;2.30;100.00;99735.47;5029882;28;20257;-67
2021/01/28 09:39:00;;;;;;;;;;;;;;;2.35;100.00;99734.72;5031967;28;19956;-68
2021/01/28 09:41:27;;;;;;;;;;;;;;;2.37;100.00;99728.72;5021715;28;20458;-67
2021/01/28 09:43:52;;;;;;;;;;;;;;;2.38;100.00;99733.06;5026239;28;20303;-67
2021/01/28 09:46:18;;;;;;;;;;;;;;;2.40;100.00;99726.22;5028598;28;19913;-67
2021/01/28 09:48:44;;;;;;;;;;;;;;;2.37;100.00;99728.72;5028207;28;20354;-67
2021/01/28 09:51:10;;;;;;;;;;;;;;;2.37;100.00;99729.59;5030426;28;19921;-66
2021/01/28 09:53:36;;;;;;;;;;;;;;;2.40;100.00;99739.09;5030316;28;19920;-67
2021/01/28 09:56:01;;;;;;;;;;;;;;;2.38;100.00;99738.22;5025307;28;19913;-66
2021/01/28 09:58:26;;;;;;;;;;;;;;;2.40;100.00;99739.09;5031444;28;19920;-66
2021/01/28 10:00:52;;;;;;;;;;;;;;;2.39;100.00;99729.63;5030110;28;20339;-67
2021/01/28 10:03:18;;;;;;;;;;;;;;;2.34;100.00;99743.31;5022424;28;20001;-67
2021/01/28 10:05:43;;;;;;;;;;;;;;;2.32;100.00;99739.84;5029507;28;20059;-67
2021/01/28 10:08:08;;;;;;;;;;;;;;;2.38;100.00;99745.94;5030235;28;20003;-67
2021/01/28 10:10:34;;;;;;;;;;;;;;;2.35;100.00;99736.44;5030971;28;20003;-67
2021/01/28 10:13:01;;;;;;;;;;;;;;;2.32;100.00;99734.69;5030638;28;20374;-66
2021/01/28 10:15:26;;;;;;;;;;;;;;;2.34;100.00;99733.00;5019646;28;19913;-67
2021/01/28 10:17:53;;;;;;;;;;;;;;;2.37;100.00;99731.31;5025498;28;20315;-67
2021/01/28 10:20:19;;;;;;;;;;;;;;;2.34;100.00;99735.59;5026775;28;19971;-67
2021/01/28 10:22:46;;;;;;;;;;;;;;;2.37;100.00;99729.59;5021796;28;19968;-67
2021/01/28 10:25:13;;;;;;;;;;;;;;;2.45;100.00;99722.00;5015783;28;20405;-66
2021/01/28 10:27:38;;;;;;;;;;;;;;;2.47;100.00;99723.78;5017188;28;20000;-66
2021/01/28 10:30:05;;;;;;;;;;;;;;;2.49;100.00;99716.06;5031210;28;19948;-66
2021/01/28 10:32:30;;;;;;;;;;;;;;;2.50;100.00;99723.81;5026119;28;19912;-66
2021/01/28 10:34:55;;;;;;;;;;;;;;;2.49;100.00;99716.06;5011697;28;20312;-66
2021/01/28 10:37:21;;;;;;;;;;;;;;;2.54;100.00;99712.69;5013643;28;20377;-67
2021/01/28 10:39:46;;;;;;;;;;;;;;;2.59;100.00;99702.47;5030547;28;20435;-66
2021/01/28 10:42:17;;;;;;;;;;;;;;;2.59;100.00;99707.66;5030709;28;20339;-66
2021/01/28 10:44:42;;;;;;;;;;;;;;;2.67;100.00;99706.06;5030756;28;19912;-67
2021/01/28 10:47:08;;;;;;;;;;;;;;;2.71;100.00;99699.25;5031004;28;19954;-67
2021/01/28 10:49:33;;;;;;;;;;;;;;;2.69;100.00;99694.06;5031109;28;19958;-67
2021/01/28 10:51:58;;;;;;;;;;;;;;;2.72;100.00;99701.84;5016575;28;20328;-66
2021/01/28 10:54:23;;;;;;;;;;;;;;;2.69;100.00;99693.19;5023206;28;19932;-67
2021/01/28 10:56:49;;;;;;;;;;;;;;;2.77;100.00;99687.28;5017583;28;19920;-68
2021/01/28 10:59:14;;;;;;;;;;;;;;;2.75;100.00;99688.97;5030033;28;19923;-67
2021/01/28 11:01:39;;;;;;;;;;;;;;;2.76;100.00;99679.53;5027712;28;19917;-66
2021/01/28 11:04:05;;;;;;;;;;;;;;;2.76;100.00;99682.09;5030862;28;19944;-66
2021/01/28 11:06:30;;;;;;;;;;;;;;;2.79;100.00;99670.13;5030637;28;19940;-66
2021/01/28 11:08:55;;;;;;;;;;;;;;;2.81;100.00;99671.03;5029522;28;19920;-66
2021/01/28 11:11:21;;;;;;;;;;;;;;;2.87;100.00;99660.78;5029187;28;19912;-66
2021/01/28 11:13:47;;;;;;;;;;;;;;;2.84;100.00;99663.31;5029562;28;19913;-66
2021/01/28 11:16:13;;;;;;;;;;;;;;;2.85;100.00;99657.31;5028559;28;19913;-66
2021/01/28 11:18:38;;;;;;;;;;;;;;;2.84;100.00;99658.16;5043059;28;19920;-67
2021/01/28 11:21:03;;;;;;;;;;;;;;;2.88;100.00;99653.91;5020697;28;19921;-67
2021/01/28 11:23:29;;;;;;;;;;;;;;;2.90;100.00;99642.75;5029765;28;19913;-67
2021/01/28 11:25:54;;;;;;;;;;;;;;;2.98;100.00;99649.75;5030308;28;19920;-67
2021/01/28 11:28:19;;;;;;;;;;;;;;;2.97;100.00;99648.03;5030171;28;20384;-67
2021/01/28 11:30:45;;;;;;;;;;;;;;;2.98;100.00;99639.44;5030408;28;19921;-66
2021/01/28 11:33:10;;;;;;;;;;;;;;;2.97;100.00;99637.69;5030394;28;19909;-66
2021/01/28 11:35:36;;;;;;;;;;;;;;;2.97;100.00;99635.09;5029914;28;20331;-66
2021/01/28 11:38:03;;;;;;;;;;;;;;;2.98;100.00;99631.69;5029744;28;19919;-66
2021/01/28 11:40:29;;;;;;;;;;;;;;;2.98;100.00;99636.84;5025591;28;19917;-66
2021/01/28 11:42:54;;;;;;;;;;;;;;;2.96;100.00;99629.06;5012194;28;19913;-66
2021/01/28 11:45:24;;;;;;;;;;;;;;;2.94;100.00;99631.66;5010638;28;19921;-67
2021/01/28 11:47:50;;;;;;;;;;;;;;;2.90;100.00;99629.84;5028428;28;19912;-66
2021/01/28 11:50:15;;;;;;;;;;;;;;;2.85;100.00;99631.50;5029780;28;20384;-66
2021/01/28 11:52:41;;;;;;;;;;;;;;;2.83;100.00;99635.78;5029638;28;20331;-66
2021/01/28 11:55:08;;;;;;;;;;;;;;;2.83;100.00;99629.75;5012664;28;20380;-66
2021/01/28 11:57:33;;;;;;;;;;;;;;;2.85;100.00;99628.06;5024492;28;19919;-67
2021/01/28 11:59:58;;;;;;;;;;;;;;;2.87;100.00;99627.22;5018162;28;19992;-66
2021/01/28 12:02:24;;;;;;;;;;;;;;;2.88;100.00;99628.94;5011801;28;19921;-66
2021/01/28 12:04:49;;;;;;;;;;;;;;;2.85;100.00;99621.16;5024414;28;19923;-66
2021/01/28 12:07:18;;;;;;;;;;;;;;;2.79;100.00;99617.66;5027752;28;19913;-67
2021/01/28 12:09:43;;;;;;;;;;;;;;;2.80;100.00;99616.81;5030478;28;19913;-67
2021/01/28 12:12:09;;;;;;;;;;;;;;;2.79;100.00;99615.94;5029099;28;19967;-66
2021/01/28 12:14:34;;;;;;;;;;;;;;;2.78;100.00;99618.47;5022376;28;19919;-66
2021/01/28 12:16:59;;;;;;;;;;;;;;;2.79;100.00;99615.94;5024945;28;20391;-67
2021/01/28 12:19:25;;;;;;;;;;;;;;;2.79;100.00;99621.09;5025915;28;19913;-67
2021/01/28 12:21:50;;;;;;;;;;;;;;;2.81;100.00;99626.28;5027804;28;19913;-66
2021/01/28 12:24:15;;;;;;;;;;;;;;;2.77;100.00;99620.19;5019369;28;19913;-66
2021/01/28 12:26:41;;;;;;;;;;;;;;;2.77;100.00;99621.88;5029506;28;19917;-67
2021/01/28 12:29:06;;;;;;;;;;;;;;;2.75;100.00;99621.88;5029699;28;19913;-66
2021/01/28 12:31:31;;;;;;;;;;;;;;;2.74;100.00;99625.31;5032376;28;19921;-67
2021/01/28 12:33:56;;;;;;;;;;;;;;;2.72;100.00;99620.97;5018785;28;20007;-66
2021/01/28 12:36:22;;;;;;;;;;;;;;;2.71;100.00;99625.25;5033556;28;19913;-69
2021/01/28 12:38:47;;;;;;;;;;;;;;;2.77;100.00;99615.00;5033694;28;19912;-66
2021/01/28 12:41:12;;;;;;;;;;;;;;;2.76;100.00;99617.56;5033732;28;19913;-66
2021/01/28 12:43:37;;;;;;;;;;;;;;;2.77;100.00;99620.19;5032235;28;19913;-66
2021/01/28 12:46:03;;;;;;;;;;;;;;;2.76;100.00;99618.44;5027585;28;19913;-66
2021/01/28 12:48:28;;;;;;;;;;;;;;;2.78;100.00;99611.59;5013995;28;19913;-66